Terminal Aerodrome Forecast
Issued by NWS

Current Version | Previous Version | Text Only | Print | Product List | Glossary On
Versions: 1 2 3 4 5 6 7 8 9 10 11 12 13 14 15 16 17 18 19 20 21 22 23 24 25 26 27 28 29 30
000
FTUS45 KGJT 221139
TAFCNY
TAF
KCNY 221139Z 2212/2312 28009KT P6SM VCSH SCT060 BKN090
     FM221500 13005KT P6SM FEW080 BKN110
     FM221800 25007KT P6SM SCT110
     FM230200 35006KT P6SM FEW110
     FM230600 08003KT P6SM FEW110=

USA.gov is the U.S. government's official web portal to all federal, state and local government web resources and services.